sensor_id;sensor_type;location;lat;lon;timestamp;pressure;altitude;pressure_sealevel;temperature
72287;BMP180;60221;45.696;16.076;2022-09-09T00:02:23;100397.00;;;22.50
72287;BMP180;60221;45.696;16.076;2022-09-09T00:05:00;100385.00;;;22.50
72287;BMP180;60221;45.696;16.076;2022-09-09T00:16:08;100378.00;;;22.40
72287;BMP180;60221;45.696;16.076;2022-09-09T00:21:38;100393.00;;;22.40
72287;BMP180;60221;45.696;16.076;2022-09-09T00:24:24;100377.00;;;22.30
72287;BMP180;60221;45.696;16.076;2022-09-09T00:26:51;100369.00;;;22.30
72287;BMP180;60221;45.696;16.076;2022-09-09T00:29:24;100374.00;;;22.30
72287;BMP180;60221;45.696;16.076;2022-09-09T00:32:00;100385.00;;;22.30
72287;BMP180;60221;45.696;16.076;2022-09-09T00:34:26;100391.00;;;22.30
72287;BMP180;60221;45.696;16.076;2022-09-09T00:36:56;100387.00;;;22.30
72287;BMP180;60221;45.696;16.076;2022-09-09T00:39:46;100380.00;;;22.30
72287;BMP180;60221;45.696;16.076;2022-09-09T00:42:17;100369.00;;;22.20
72287;BMP180;60221;45.696;16.076;2022-09-09T00:44:58;100368.00;;;22.20
72287;BMP180;60221;45.696;16.076;2022-09-09T00:53:24;100337.00;;;22.10
72287;BMP180;60221;45.696;16.076;2022-09-09T00:56:14;100334.00;;;22.10
72287;BMP180;60221;45.696;16.076;2022-09-09T00:59:07;100341.00;;;22.10
72287;BMP180;60221;45.696;16.076;2022-09-09T01:01:39;100354.00;;;22.10
72287;BMP180;60221;45.696;16.076;2022-09-09T01:04:12;100358.00;;;22.10
72287;BMP180;60221;45.696;16.076;2022-09-09T01:06:43;100368.00;;;22.10
72287;BMP180;60221;45.696;16.076;2022-09-09T01:09:22;100377.00;;;22.10
72287;BMP180;60221;45.696;16.076;2022-09-09T01:12:01;100391.00;;;22.10
72287;BMP180;60221;45.696;16.076;2022-09-09T01:17:27;100393.00;;;22.10
72287;BMP180;60221;45.696;16.076;2022-09-09T01:20:17;100398.00;;;22.10
72287;BMP180;60221;45.696;16.076;2022-09-09T01:23:39;100402.00;;;22.10
72287;BMP180;60221;45.696;16.076;2022-09-09T01:28:48;100400.00;;;22.10
72287;BMP180;60221;45.696;16.076;2022-09-09T01:31:30;100398.00;;;22.00
72287;BMP180;60221;45.696;16.076;2022-09-09T01:33:55;100397.00;;;22.00
72287;BMP180;60221;45.696;16.076;2022-09-09T01:36:32;100396.00;;;22.00
72287;BMP180;60221;45.696;16.076;2022-09-09T01:38:59;100379.00;;;22.00
72287;BMP180;60221;45.696;16.076;2022-09-09T01:41:26;100390.00;;;22.00
72287;BMP180;60221;45.696;16.076;2022-09-09T01:44:02;100389.00;;;22.00
72287;BMP180;60221;45.696;16.076;2022-09-09T01:46:30;100400.00;;;22.10
72287;BMP180;60221;45.696;16.076;2022-09-09T01:48:59;100399.00;;;22.10
72287;BMP180;60221;45.696;16.076;2022-09-09T01:51:28;100391.00;;;22.10
72287;BMP180;60221;45.696;16.076;2022-09-09T01:53:56;100388.00;;;22.10
72287;BMP180;60221;45.696;16.076;2022-09-09T01:56:40;100405.00;;;22.10
72287;BMP180;60221;45.696;16.076;2022-09-09T01:59:30;100410.00;;;22.00
72287;BMP180;60221;45.696;16.076;2022-09-09T02:04:49;100397.00;;;22.00
72287;BMP180;60221;45.696;16.076;2022-09-09T02:07:40;100398.00;;;22.00
72287;BMP180;60221;45.696;16.076;2022-09-09T02:13:02;100408.00;;;21.90
72287;BMP180;60221;45.696;16.076;2022-09-09T02:15:30;100416.00;;;21.90
72287;BMP180;60221;45.696;16.076;2022-09-09T02:18:01;100424.00;;;21.90
72287;BMP180;60221;45.696;16.076;2022-09-09T02:20:33;100409.00;;;21.90
72287;BMP180;60221;45.696;16.076;2022-09-09T02:23:04;100419.00;;;21.90
72287;BMP180;60221;45.696;16.076;2022-09-09T02:25:36;100425.00;;;21.90
72287;BMP180;60221;45.696;16.076;2022-09-09T02:28:08;100430.00;;;21.90
72287;BMP180;60221;45.696;16.076;2022-09-09T02:30:37;100436.00;;;21.90
72287;BMP180;60221;45.696;16.076;2022-09-09T02:33:08;100438.00;;;21.80
72287;BMP180;60221;45.696;16.076;2022-09-09T02:35:46;100439.00;;;21.80
72287;BMP180;60221;45.696;16.076;2022-09-09T02:38:16;100447.00;;;21.80
72287;BMP180;60221;45.696;16.076;2022-09-09T02:40:45;100436.00;;;21.80
72287;BMP180;60221;45.696;16.076;2022-09-09T02:43:11;100425.00;;;21.80
72287;BMP180;60221;45.696;16.076;2022-09-09T02:45:48;100428.00;;;21.80
72287;BMP180;60221;45.696;16.076;2022-09-09T02:48:30;100433.00;;;21.90
72287;BMP180;60221;45.696;16.076;2022-09-09T02:51:21;100429.00;;;21.90
72287;BMP180;60221;45.696;16.076;2022-09-09T02:56:42;100431.00;;;22.00
72287;BMP180;60221;45.696;16.076;2022-09-09T02:59:12;100435.00;;;22.00
72287;BMP180;60221;45.696;16.076;2022-09-09T03:01:39;100430.00;;;22.10
72287;BMP180;60221;45.696;16.076;2022-09-09T03:04:06;100425.00;;;22.10
72287;BMP180;60221;45.696;16.076;2022-09-09T03:06:32;100428.00;;;22.10
72287;BMP180;60221;45.696;16.076;2022-09-09T03:09:00;100431.00;;;22.10
72287;BMP180;60221;45.696;16.076;2022-09-09T03:11:28;100434.00;;;22.10
72287;BMP180;60221;45.696;16.076;2022-09-09T03:13:55;100427.00;;;22.00
72287;BMP180;60221;45.696;16.076;2022-09-09T03:16:24;100427.00;;;22.00
72287;BMP180;60221;45.696;16.076;2022-09-09T03:18:52;100422.00;;;22.00
72287;BMP180;60221;45.696;16.076;2022-09-09T03:21:19;100417.00;;;22.00
72287;BMP180;60221;45.696;16.076;2022-09-09T03:23:45;100423.00;;;22.00
72287;BMP180;60221;45.696;16.076;2022-09-09T03:26:12;100418.00;;;22.00
72287;BMP180;60221;45.696;16.076;2022-09-09T03:28:42;100421.00;;;22.00
72287;BMP180;60221;45.696;16.076;2022-09-09T03:31:11;100415.00;;;22.00
72287;BMP180;60221;45.696;16.076;2022-09-09T03:33:40;100416.00;;;22.00
72287;BMP180;60221;45.696;16.076;2022-09-09T03:36:07;100421.00;;;21.90
72287;BMP180;60221;45.696;16.076;2022-09-09T03:38:34;100416.00;;;21.90
72287;BMP180;60221;45.696;16.076;2022-09-09T03:41:01;100422.00;;;21.90
72287;BMP180;60221;45.696;16.076;2022-09-09T03:43:28;100424.00;;;21.90
72287;BMP180;60221;45.696;16.076;2022-09-09T03:45:55;100415.00;;;21.80
72287;BMP180;60221;45.696;16.076;2022-09-09T03:48:26;100411.00;;;21.80
72287;BMP180;60221;45.696;16.076;2022-09-09T03:50:54;100419.00;;;21.80
72287;BMP180;60221;45.696;16.076;2022-09-09T03:53:24;100417.00;;;21.70
72287;BMP180;60221;45.696;16.076;2022-09-09T03:55:53;100420.00;;;21.70
72287;BMP180;60221;45.696;16.076;2022-09-09T03:58:23;100416.00;;;21.60
72287;BMP180;60221;45.696;16.076;2022-09-09T04:00:57;100411.00;;;21.60
72287;BMP180;60221;45.696;16.076;2022-09-09T04:03:26;100409.00;;;21.50
72287;BMP180;60221;45.696;16.076;2022-09-09T04:05:54;100409.00;;;21.40
72287;BMP180;60221;45.696;16.076;2022-09-09T04:08:23;100409.00;;;21.40
72287;BMP180;60221;45.696;16.076;2022-09-09T04:10:52;100419.00;;;21.40
72287;BMP180;60221;45.696;16.076;2022-09-09T04:13:19;100407.00;;;21.40
72287;BMP180;60221;45.696;16.076;2022-09-09T04:15:53;100407.00;;;21.40
72287;BMP180;60221;45.696;16.076;2022-09-09T04:18:22;100405.00;;;21.40
72287;BMP180;60221;45.696;16.076;2022-09-09T04:20:50;100405.00;;;21.40
72287;BMP180;60221;45.696;16.076;2022-09-09T04:23:20;100402.00;;;21.40
72287;BMP180;60221;45.696;16.076;2022-09-09T04:25:48;100390.00;;;21.30
72287;BMP180;60221;45.696;16.076;2022-09-09T04:28:19;100384.00;;;21.20
72287;BMP180;60221;45.696;16.076;2022-09-09T04:30:47;100377.00;;;21.20
72287;BMP180;60221;45.696;16.076;2022-09-09T04:33:14;100388.00;;;21.10
72287;BMP180;60221;45.696;16.076;2022-09-09T04:35:47;100384.00;;;21.10
72287;BMP180;60221;45.696;16.076;2022-09-09T04:38:17;100390.00;;;21.10
72287;BMP180;60221;45.696;16.076;2022-09-09T04:40:48;100391.00;;;21.10
72287;BMP180;60221;45.696;16.076;2022-09-09T04:43:20;100392.00;;;21.10
72287;BMP180;60221;45.696;16.076;2022-09-09T04:45:49;100392.00;;;21.10
72287;BMP180;60221;45.696;16.076;2022-09-09T04:48:20;100395.00;;;21.20
72287;BMP180;60221;45.696;16.076;2022-09-09T04:51:02;100397.00;;;21.20
72287;BMP180;60221;45.696;16.076;2022-09-09T04:53:31;100400.00;;;21.30
72287;BMP180;60221;45.696;16.076;2022-09-09T04:56:05;100403.00;;;21.40
72287;BMP180;60221;45.696;16.076;2022-09-09T04:58:38;100402.00;;;21.40
72287;BMP180;60221;45.696;16.076;2022-09-09T05:01:10;100403.00;;;21.40
72287;BMP180;60221;45.696;16.076;2022-09-09T05:03:39;100407.00;;;21.50
72287;BMP180;60221;45.696;16.076;2022-09-09T05:06:11;100408.00;;;21.50
72287;BMP180;60221;45.696;16.076;2022-09-09T05:08:41;100412.00;;;21.60
72287;BMP180;60221;45.696;16.076;2022-09-09T05:11:17;100412.00;;;21.60
72287;BMP180;60221;45.696;16.076;2022-09-09T05:13:46;100413.00;;;21.60
72287;BMP180;60221;45.696;16.076;2022-09-09T05:16:14;100421.00;;;21.70
72287;BMP180;60221;45.696;16.076;2022-09-09T05:18:40;100419.00;;;21.60
72287;BMP180;60221;45.696;16.076;2022-09-09T05:21:11;100420.00;;;21.60
72287;BMP180;60221;45.696;16.076;2022-09-09T05:23:40;100423.00;;;21.70
72287;BMP180;60221;45.696;16.076;2022-09-09T05:26:11;100425.00;;;21.80
72287;BMP180;60221;45.696;16.076;2022-09-09T05:28:39;100420.00;;;21.80
72287;BMP180;60221;45.696;16.076;2022-09-09T05:31:07;100422.00;;;21.90
72287;BMP180;60221;45.696;16.076;2022-09-09T05:33:37;100426.00;;;22.00
72287;BMP180;60221;45.696;16.076;2022-09-09T05:36:15;100418.00;;;22.10
72287;BMP180;60221;45.696;16.076;2022-09-09T05:38:44;100412.00;;;22.10
72287;BMP180;60221;45.696;16.076;2022-09-09T05:41:13;100415.00;;;22.20
72287;BMP180;60221;45.696;16.076;2022-09-09T05:43:43;100420.00;;;22.20
72287;BMP180;60221;45.696;16.076;2022-09-09T05:46:19;100420.00;;;22.20
72287;BMP180;60221;45.696;16.076;2022-09-09T05:48:49;100415.00;;;22.20
72287;BMP180;60221;45.696;16.076;2022-09-09T05:51:23;100424.00;;;22.20
72287;BMP180;60221;45.696;16.076;2022-09-09T05:53:53;100425.00;;;22.20
72287;BMP180;60221;45.696;16.076;2022-09-09T05:56:28;100418.00;;;22.20
72287;BMP180;60221;45.696;16.076;2022-09-09T05:58:56;100423.00;;;22.20
72287;BMP180;60221;45.696;16.076;2022-09-09T06:01:25;100418.00;;;22.20
72287;BMP180;60221;45.696;16.076;2022-09-09T06:03:56;100422.00;;;22.30
72287;BMP180;60221;45.696;16.076;2022-09-09T06:06:25;100418.00;;;22.30
72287;BMP180;60221;45.696;16.076;2022-09-09T06:08:56;100427.00;;;22.30
72287;BMP180;60221;45.696;16.076;2022-09-09T06:11:30;100421.00;;;22.40
72287;BMP180;60221;45.696;16.076;2022-09-09T06:13:58;100415.00;;;22.40
72287;BMP180;60221;45.696;16.076;2022-09-09T06:16:27;100423.00;;;22.50
72287;BMP180;60221;45.696;16.076;2022-09-09T06:18:56;100423.00;;;22.60
72287;BMP180;60221;45.696;16.076;2022-09-09T06:21:31;100416.00;;;22.70
72287;BMP180;60221;45.696;16.076;2022-09-09T06:24:00;100423.00;;;22.80
72287;BMP180;60221;45.696;16.076;2022-09-09T06:26:33;100419.00;;;22.90
72287;BMP180;60221;45.696;16.076;2022-09-09T06:29:04;100431.00;;;22.90
72287;BMP180;60221;45.696;16.076;2022-09-09T06:31:33;100425.00;;;22.90
72287;BMP180;60221;45.696;16.076;2022-09-09T06:34:05;100419.00;;;22.90
72287;BMP180;60221;45.696;16.076;2022-09-09T06:36:36;100423.00;;;22.80
72287;BMP180;60221;45.696;16.076;2022-09-09T06:39:06;100429.00;;;22.80
72287;BMP180;60221;45.696;16.076;2022-09-09T06:41:35;100424.00;;;23.00
72287;BMP180;60221;45.696;16.076;2022-09-09T06:44:02;100419.00;;;23.20
72287;BMP180;60221;45.696;16.076;2022-09-09T06:46:31;100418.00;;;23.20
72287;BMP180;60221;45.696;16.076;2022-09-09T06:49:00;100417.00;;;23.30
72287;BMP180;60221;45.696;16.076;2022-09-09T06:51:29;100420.00;;;23.50
72287;BMP180;60221;45.696;16.076;2022-09-09T06:53:59;100419.00;;;23.60
72287;BMP180;60221;45.696;16.076;2022-09-09T06:56:34;100423.00;;;23.80
72287;BMP180;60221;45.696;16.076;2022-09-09T06:59:05;100414.00;;;23.90
72287;BMP180;60221;45.696;16.076;2022-09-09T07:01:37;100420.00;;;24.00
72287;BMP180;60221;45.696;16.076;2022-09-09T07:04:08;100414.00;;;24.10
72287;BMP180;60221;45.696;16.076;2022-09-09T07:06:40;100417.00;;;24.20
72287;BMP180;60221;45.696;16.076;2022-09-09T07:09:13;100420.00;;;24.20
72287;BMP180;60221;45.696;16.076;2022-09-09T07:11:47;100413.00;;;24.10
72287;BMP180;60221;45.696;16.076;2022-09-09T07:14:14;100418.00;;;24.10
72287;BMP180;60221;45.696;16.076;2022-09-09T07:16:44;100415.00;;;24.10
72287;BMP180;60221;45.696;16.076;2022-09-09T07:19:13;100420.00;;;24.20
72287;BMP180;60221;45.696;16.076;2022-09-09T07:21:40;100417.00;;;24.30
72287;BMP180;60221;45.696;16.076;2022-09-09T07:24:08;100423.00;;;24.30
72287;BMP180;60221;45.696;16.076;2022-09-09T07:26:37;100423.00;;;24.40
72287;BMP180;60221;45.696;16.076;2022-09-09T07:29:07;100421.00;;;24.50
72287;BMP180;60221;45.696;16.076;2022-09-09T07:31:36;100423.00;;;24.50
72287;BMP180;60221;45.696;16.076;2022-09-09T07:34:07;100417.00;;;24.50
72287;BMP180;60221;45.696;16.076;2022-09-09T07:36:36;100424.00;;;24.50
72287;BMP180;60221;45.696;16.076;2022-09-09T07:39:08;100425.00;;;24.50
72287;BMP180;60221;45.696;16.076;2022-09-09T07:41:42;100411.00;;;24.50
72287;BMP180;60221;45.696;16.076;2022-09-09T07:44:16;100412.00;;;24.60
72287;BMP180;60221;45.696;16.076;2022-09-09T07:46:48;100422.00;;;24.70
72287;BMP180;60221;45.696;16.076;2022-09-09T07:49:17;100420.00;;;24.80
72287;BMP180;60221;45.696;16.076;2022-09-09T07:51:45;100414.00;;;24.80
72287;BMP180;60221;45.696;16.076;2022-09-09T07:54:17;100419.00;;;24.70
72287;BMP180;60221;45.696;16.076;2022-09-09T07:56:50;100428.00;;;24.80
72287;BMP180;60221;45.696;16.076;2022-09-09T07:59:17;100412.00;;;24.90
72287;BMP180;60221;45.696;16.076;2022-09-09T08:01:51;100406.00;;;24.90
72287;BMP180;60221;45.696;16.076;2022-09-09T08:04:20;100403.00;;;24.90
72287;BMP180;60221;45.696;16.076;2022-09-09T08:06:50;100394.00;;;24.90
72287;BMP180;60221;45.696;16.076;2022-09-09T08:09:20;100392.00;;;24.90
72287;BMP180;60221;45.696;16.076;2022-09-09T08:11:48;100402.00;;;24.90
72287;BMP180;60221;45.696;16.076;2022-09-09T08:14:15;100404.00;;;24.90
72287;BMP180;60221;45.696;16.076;2022-09-09T08:16:45;100412.00;;;24.90
72287;BMP180;60221;45.696;16.076;2022-09-09T08:19:14;100403.00;;;24.90
72287;BMP180;60221;45.696;16.076;2022-09-09T08:21:42;100398.00;;;24.80
72287;BMP180;60221;45.696;16.076;2022-09-09T08:24:11;100403.00;;;24.90
72287;BMP180;60221;45.696;16.076;2022-09-09T08:26:46;100402.00;;;24.90
72287;BMP180;60221;45.696;16.076;2022-09-09T08:29:15;100397.00;;;24.90
72287;BMP180;60221;45.696;16.076;2022-09-09T08:31:45;100396.00;;;24.90
72287;BMP180;60221;45.696;16.076;2022-09-09T08:34:17;100394.00;;;24.90
72287;BMP180;60221;45.696;16.076;2022-09-09T08:36:48;100390.00;;;25.00
72287;BMP180;60221;45.696;16.076;2022-09-09T08:39:18;100392.00;;;25.00
72287;BMP180;60221;45.696;16.076;2022-09-09T08:45:04;100394.00;;;25.00
72287;BMP180;60221;45.696;16.076;2022-09-09T08:50:29;100390.00;;;25.10
72287;BMP180;60221;45.696;16.076;2022-09-09T08:53:17;100387.00;;;25.10
72287;BMP180;60221;45.696;16.076;2022-09-09T08:55:53;100375.00;;;25.10
72287;BMP180;60221;45.696;16.076;2022-09-09T08:58:35;100376.00;;;25.10
72287;BMP180;60221;45.696;16.076;2022-09-09T09:07:25;100362.00;;;25.60
72287;BMP180;60221;45.696;16.076;2022-09-09T09:10:02;100358.00;;;25.60
72287;BMP180;60221;45.696;16.076;2022-09-09T09:12:40;100353.00;;;25.70
72287;BMP180;60221;45.696;16.076;2022-09-09T09:15:14;100352.00;;;25.70
72287;BMP180;60221;45.696;16.076;2022-09-09T09:17:42;100349.00;;;25.80
72287;BMP180;60221;45.696;16.076;2022-09-09T09:20:15;100335.00;;;25.80
72287;BMP180;60221;45.696;16.076;2022-09-09T09:22:50;100333.00;;;25.90
72287;BMP180;60221;45.696;16.076;2022-09-09T09:25:22;100336.00;;;26.00
72287;BMP180;60221;45.696;16.076;2022-09-09T09:28:13;100324.00;;;25.90
72287;BMP180;60221;45.696;16.076;2022-09-09T09:30:59;100331.00;;;26.00
72287;BMP180;60221;45.696;16.076;2022-09-09T09:33:33;100319.00;;;26.10
72287;BMP180;60221;45.696;16.076;2022-09-09T09:36:13;100326.00;;;26.20
72287;BMP180;60221;45.696;16.076;2022-09-09T09:38:58;100331.00;;;26.30
72287;BMP180;60221;45.696;16.076;2022-09-09T09:41:38;100335.00;;;26.30
72287;BMP180;60221;45.696;16.076;2022-09-09T09:46:50;100336.00;;;26.60
72287;BMP180;60221;45.696;16.076;2022-09-09T09:49:17;100322.00;;;26.80
72287;BMP180;60221;45.696;16.076;2022-09-09T09:51:44;100332.00;;;27.20
72287;BMP180;60221;45.696;16.076;2022-09-09T09:54:33;100317.00;;;27.50
72287;BMP180;60221;45.696;16.076;2022-09-09T09:56:51;100310.00;;;27.80
72287;BMP180;60221;45.696;16.076;2022-09-09T09:59:32;100303.00;;;27.80
72287;BMP180;60221;45.696;16.076;2022-09-09T10:02:14;100304.00;;;27.70
72287;BMP180;60221;45.696;16.076;2022-09-09T10:05:23;100304.00;;;27.60
72287;BMP180;60221;45.696;16.076;2022-09-09T10:07:44;100303.00;;;27.60
72287;BMP180;60221;45.696;16.076;2022-09-09T10:10:26;100293.00;;;27.60
72287;BMP180;60221;45.696;16.076;2022-09-09T10:13:02;100288.00;;;27.70
72287;BMP180;60221;45.696;16.076;2022-09-09T10:15:41;100281.00;;;27.60
72287;BMP180;60221;45.696;16.076;2022-09-09T10:30:24;100278.00;;;27.50
72287;BMP180;60221;45.696;16.076;2022-09-09T10:33:03;100270.00;;;27.60
72287;BMP180;60221;45.696;16.076;2022-09-09T10:35:47;100269.00;;;27.80
72287;BMP180;60221;45.696;16.076;2022-09-09T10:44:12;100274.00;;;28.60
72287;BMP180;60221;45.696;16.076;2022-09-09T10:52:37;100276.00;;;28.80
72287;BMP180;60221;45.696;16.076;2022-09-09T10:57:48;100264.00;;;28.80
72287;BMP180;60221;45.696;16.076;2022-09-09T11:00:23;100254.00;;;28.90
72287;BMP180;60221;45.696;16.076;2022-09-09T11:03:04;100247.00;;;29.00
72287;BMP180;60221;45.696;16.076;2022-09-09T11:05:49;100243.00;;;29.10
72287;BMP180;60221;45.696;16.076;2022-09-09T11:08:29;100248.00;;;29.30
72287;BMP180;60221;45.696;16.076;2022-09-09T11:19:40;100227.00;;;29.40
72287;BMP180;60221;45.696;16.076;2022-09-09T11:28:08;100257.00;;;29.10
72287;BMP180;60221;45.696;16.076;2022-09-09T11:34:13;100254.00;;;29.00
72287;BMP180;60221;45.696;16.076;2022-09-09T11:37:02;100261.00;;;28.90
72287;BMP180;60221;45.696;16.076;2022-09-09T11:42:23;100264.00;;;28.80
72287;BMP180;60221;45.696;16.076;2022-09-09T11:44:51;100255.00;;;28.80
72287;BMP180;60221;45.696;16.076;2022-09-09T11:47:29;100245.00;;;28.80
72287;BMP180;60221;45.696;16.076;2022-09-09T11:52:50;100253.00;;;29.00
72287;BMP180;60221;45.696;16.076;2022-09-09T12:03:04;100258.00;;;28.90
72287;BMP180;60221;45.696;16.076;2022-09-09T12:05:44;100269.00;;;28.70
72287;BMP180;60221;45.696;16.076;2022-09-09T12:08:16;100272.00;;;28.60
72287;BMP180;60221;45.696;16.076;2022-09-09T12:10:53;100283.00;;;28.50
72287;BMP180;60221;45.696;16.076;2022-09-09T12:13:23;100292.00;;;28.40
72287;BMP180;60221;45.696;16.076;2022-09-09T12:15:53;100304.00;;;28.30
72287;BMP180;60221;45.696;16.076;2022-09-09T12:18:35;100307.00;;;28.10
72287;BMP180;60221;45.696;16.076;2022-09-09T12:21:25;100305.00;;;27.90
72287;BMP180;60221;45.696;16.076;2022-09-09T12:24:06;100309.00;;;27.70
72287;BMP180;60221;45.696;16.076;2022-09-09T12:26:51;100310.00;;;27.50
72287;BMP180;60221;45.696;16.076;2022-09-09T12:29:31;100316.00;;;27.30
72287;BMP180;60221;45.696;16.076;2022-09-09T12:32:11;100315.00;;;27.10
72287;BMP180;60221;45.696;16.076;2022-09-09T12:35:08;100305.00;;;27.00
72287;BMP180;60221;45.696;16.076;2022-09-09T12:37:40;100296.00;;;26.90
72287;BMP180;60221;45.696;16.076;2022-09-09T12:40:30;100272.00;;;26.90
72287;BMP180;60221;45.696;16.076;2022-09-09T12:43:01;100269.00;;;26.90
72287;BMP180;60221;45.696;16.076;2022-09-09T12:45:31;100260.00;;;27.00
72287;BMP180;60221;45.696;16.076;2022-09-09T12:48:06;100269.00;;;27.10
72287;BMP180;60221;45.696;16.076;2022-09-09T12:50:48;100245.00;;;27.10
72287;BMP180;60221;45.696;16.076;2022-09-09T12:53:22;100245.00;;;27.10
72287;BMP180;60221;45.696;16.076;2022-09-09T12:56:04;100236.00;;;27.10
72287;BMP180;60221;45.696;16.076;2022-09-09T12:58:37;100239.00;;;27.10
72287;BMP180;60221;45.696;16.076;2022-09-09T13:01:06;100239.00;;;27.10
72287;BMP180;60221;45.696;16.076;2022-09-09T13:03:42;100243.00;;;27.10
72287;BMP180;60221;45.696;16.076;2022-09-09T13:06:13;100254.00;;;27.10
72287;BMP180;60221;45.696;16.076;2022-09-09T13:08:42;100260.00;;;27.10
72287;BMP180;60221;45.696;16.076;2022-09-09T13:11:16;100261.00;;;27.10
72287;BMP180;60221;45.696;16.076;2022-09-09T13:13:42;100254.00;;;27.10
72287;BMP180;60221;45.696;16.076;2022-09-09T13:16:23;100253.00;;;27.10
72287;BMP180;60221;45.696;16.076;2022-09-09T13:19:06;100247.00;;;27.20
72287;BMP180;60221;45.696;16.076;2022-09-09T13:21:39;100237.00;;;27.30
72287;BMP180;60221;45.696;16.076;2022-09-09T13:24:27;100230.00;;;27.40
72287;BMP180;60221;45.696;16.076;2022-09-09T13:27:03;100221.00;;;27.50
72287;BMP180;60221;45.696;16.076;2022-09-09T13:29:32;100213.00;;;27.60
72287;BMP180;60221;45.696;16.076;2022-09-09T13:32:07;100222.00;;;27.70
72287;BMP180;60221;45.696;16.076;2022-09-09T13:34:59;100219.00;;;27.70
72287;BMP180;60221;45.696;16.076;2022-09-09T13:37:38;100214.00;;;27.80
72287;BMP180;60221;45.696;16.076;2022-09-09T13:40:18;100216.00;;;27.90
72287;BMP180;60221;45.696;16.076;2022-09-09T13:42:55;100205.00;;;27.90
72287;BMP180;60221;45.696;16.076;2022-09-09T13:45:25;100190.00;;;27.90
72287;BMP180;60221;45.696;16.076;2022-09-09T13:47:54;100191.00;;;27.90
72287;BMP180;60221;45.696;16.076;2022-09-09T13:52:57;100200.00;;;27.70
72287;BMP180;60221;45.696;16.076;2022-09-09T13:55:29;100209.00;;;27.60
72287;BMP180;60221;45.696;16.076;2022-09-09T13:58:02;100218.00;;;27.60
72287;BMP180;60221;45.696;16.076;2022-09-09T14:00:33;100226.00;;;27.60
72287;BMP180;60221;45.696;16.076;2022-09-09T14:03:01;100212.00;;;27.50
72287;BMP180;60221;45.696;16.076;2022-09-09T14:05:30;100206.00;;;27.50
72287;BMP180;60221;45.696;16.076;2022-09-09T14:08:00;100192.00;;;27.40
72287;BMP180;60221;45.696;16.076;2022-09-09T14:10:28;100186.00;;;27.30
72287;BMP180;60221;45.696;16.076;2022-09-09T14:12:54;100179.00;;;27.20
72287;BMP180;60221;45.696;16.076;2022-09-09T14:15:21;100182.00;;;27.10
72287;BMP180;60221;45.696;16.076;2022-09-09T14:17:47;100191.00;;;27.10
72287;BMP180;60221;45.696;16.076;2022-09-09T14:20:14;100192.00;;;27.00
72287;BMP180;60221;45.696;16.076;2022-09-09T14:22:43;100191.00;;;27.00
72287;BMP180;60221;45.696;16.076;2022-09-09T14:25:09;100187.00;;;26.90
72287;BMP180;60221;45.696;16.076;2022-09-09T14:27:39;100195.00;;;26.90
72287;BMP180;60221;45.696;16.076;2022-09-09T14:30:08;100192.00;;;26.80
72287;BMP180;60221;45.696;16.076;2022-09-09T14:32:35;100202.00;;;26.80
72287;BMP180;60221;45.696;16.076;2022-09-09T14:35:01;100204.00;;;26.70
72287;BMP180;60221;45.696;16.076;2022-09-09T14:37:27;100209.00;;;26.60
72287;BMP180;60221;45.696;16.076;2022-09-09T14:39:53;100205.00;;;26.50
72287;BMP180;60221;45.696;16.076;2022-09-09T14:42:20;100214.00;;;26.40
72287;BMP180;60221;45.696;16.076;2022-09-09T14:44:47;100219.00;;;26.30
72287;BMP180;60221;45.696;16.076;2022-09-09T14:47:13;100216.00;;;26.20
72287;BMP180;60221;45.696;16.076;2022-09-09T14:49:39;100225.00;;;26.10
72287;BMP180;60221;45.696;16.076;2022-09-09T14:52:05;100227.00;;;26.00
72287;BMP180;60221;45.696;16.076;2022-09-09T14:54:32;100237.00;;;25.90
72287;BMP180;60221;45.696;16.076;2022-09-09T14:56:58;100231.00;;;25.80
72287;BMP180;60221;45.696;16.076;2022-09-09T14:59:28;100234.00;;;25.70
72287;BMP180;60221;45.696;16.076;2022-09-09T15:01:54;100235.00;;;25.60
72287;BMP180;60221;45.696;16.076;2022-09-09T15:04:21;100230.00;;;25.60
72287;BMP180;60221;45.696;16.076;2022-09-09T15:06:47;100227.00;;;25.50
72287;BMP180;60221;45.696;16.076;2022-09-09T15:09:16;100233.00;;;25.40
72287;BMP180;60221;45.696;16.076;2022-09-09T15:11:42;100228.00;;;25.40
72287;BMP180;60221;45.696;16.076;2022-09-09T15:14:09;100229.00;;;25.30
72287;BMP180;60221;45.696;16.076;2022-09-09T15:16:38;100228.00;;;25.20
72287;BMP180;60221;45.696;16.076;2022-09-09T15:19:05;100235.00;;;25.20
72287;BMP180;60221;45.696;16.076;2022-09-09T15:21:33;100237.00;;;25.10
72287;BMP180;60221;45.696;16.076;2022-09-09T15:24:01;100234.00;;;25.10
72287;BMP180;60221;45.696;16.076;2022-09-09T15:26:28;100236.00;;;25.10
72287;BMP180;60221;45.696;16.076;2022-09-09T15:28:56;100242.00;;;25.10
72287;BMP180;60221;45.696;16.076;2022-09-09T15:31:29;100236.00;;;25.10
72287;BMP180;60221;45.696;16.076;2022-09-09T15:34:03;100238.00;;;25.10
72287;BMP180;60221;45.696;16.076;2022-09-09T15:36:32;100238.00;;;25.10
72287;BMP180;60221;45.696;16.076;2022-09-09T15:39:09;100241.00;;;25.00
72287;BMP180;60221;45.696;16.076;2022-09-09T15:41:39;100233.00;;;25.00
72287;BMP180;60221;45.696;16.076;2022-09-09T15:44:05;100236.00;;;24.90
72287;BMP180;60221;45.696;16.076;2022-09-09T15:46:43;100242.00;;;24.90
72287;BMP180;60221;45.696;16.076;2022-09-09T15:49:17;100243.00;;;24.80
72287;BMP180;60221;45.696;16.076;2022-09-09T15:51:47;100239.00;;;24.70
72287;BMP180;60221;45.696;16.076;2022-09-09T15:54:17;100252.00;;;24.70
72287;BMP180;60221;45.696;16.076;2022-09-09T15:56:57;100260.00;;;24.60
72287;BMP180;60221;45.696;16.076;2022-09-09T15:59:27;100250.00;;;24.50
72287;BMP180;60221;45.696;16.076;2022-09-09T16:01:56;100258.00;;;24.40